NOO799 EGNX-EKCH
Flight info
| Callsign | NOO799 |
|---|---|
| Flight time | 1h 32m |
| Altitude | 35000 |
| Route | SAPC1N SAPCO UY53 DTY L10 BPK Q295 BRAIN M197 REDFA L620 TULIP Y12 SPY N873 ANDIK M105 AMRAK P999 ALS T153 TUDLO TUDL4C |
| Aircraft | B763/H-SDE3FGHIM3RWXY/LB1 |
Departure
| Time | 2026-05-04 21:45 |
|---|---|
| Airport | East Midlands Airport (EGNX) |
Arrival
| Time | 2026-05-04 23:18 |
|---|---|
| Airport | Copenhagen Kastrup Airport (EKCH) |
| Time | Latitude | Longitude | Altitude | Speed | Heading |
|---|---|---|---|---|---|
| 2026-05-04 21:18 | 52.82738 | -1.35264 | 317 ft | 0 kts | 178° |
| 2026-05-04 21:31 | 52.82746 | -1.35265 | 317 ft | 2 kts | 178° |
| 2026-05-04 21:31 | 52.82761 | -1.35265 | 317 ft | 2 kts | 178° |
| 2026-05-04 21:32 | 52.82776 | -1.35267 | 317 ft | 2 kts | 166° |
| 2026-05-04 21:32 | 52.82790 | -1.35276 | 317 ft | 2 kts | 147° |
| 2026-05-04 21:32 | 52.82802 | -1.35292 | 317 ft | 2 kts | 131° |
| 2026-05-04 21:32 | 52.82811 | -1.35312 | 317 ft | 2 kts | 116° |
| 2026-05-04 21:33 | 52.82816 | -1.35336 | 317 ft | 2 kts | 99° |
| 2026-05-04 21:33 | 52.82816 | -1.35361 | 317 ft | 2 kts | 85° |
| 2026-05-04 21:33 | 52.82815 | -1.35386 | 317 ft | 2 kts | 88° |
| 2026-05-04 21:33 | 52.82815 | -1.35411 | 317 ft | 2 kts | 89° |
| 2026-05-04 21:34 | 52.82814 | -1.35436 | 317 ft | 2 kts | 88° |
| 2026-05-04 21:34 | 52.82814 | -1.35460 | 317 ft | 2 kts | 88° |
| 2026-05-04 21:34 | 52.82813 | -1.35480 | 317 ft | 0 kts | 88° |
| 2026-05-04 21:36 | 52.82813 | -1.35468 | 317 ft | 3 kts | 88° |
| 2026-05-04 21:37 | 52.82816 | -1.35385 | 317 ft | 10 kts | 88° |
| 2026-05-04 21:37 | 52.82850 | -1.35264 | 317 ft | 14 kts | 30° |
| 2026-05-04 21:37 | 52.82892 | -1.35112 | 317 ft | 16 kts | 89° |
| 2026-05-04 21:37 | 52.82896 | -1.34893 | 317 ft | 21 kts | 88° |
| 2026-05-04 21:38 | 52.82901 | -1.34625 | 317 ft | 25 kts | 88° |
| 2026-05-04 21:38 | 52.82903 | -1.34347 | 317 ft | 22 kts | 90° |
| 2026-05-04 21:38 | 52.82901 | -1.34097 | 317 ft | 20 kts | 88° |
| 2026-05-04 21:38 | 52.82909 | -1.33875 | 317 ft | 18 kts | 88° |
| 2026-05-04 21:39 | 52.82913 | -1.33681 | 317 ft | 15 kts | 89° |
| 2026-05-04 21:39 | 52.82915 | -1.33514 | 317 ft | 13 kts | 89° |
| 2026-05-04 21:39 | 52.82918 | -1.33367 | 317 ft | 11 kts | 88° |
| 2026-05-04 21:39 | 52.82920 | -1.33237 | 317 ft | 10 kts | 88° |
| 2026-05-04 21:40 | 52.82922 | -1.33120 | 317 ft | 10 kts | 90° |
| 2026-05-04 21:40 | 52.82923 | -1.32988 | 317 ft | 12 kts | 88° |
| 2026-05-04 21:40 | 52.82927 | -1.32818 | 317 ft | 16 kts | 88° |
| 2026-05-04 21:40 | 52.82931 | -1.32607 | 317 ft | 20 kts | 89° |
| 2026-05-04 21:41 | 52.82936 | -1.32356 | 317 ft | 23 kts | 88° |
| 2026-05-04 21:41 | 52.82942 | -1.32066 | 317 ft | 26 kts | 88° |
| 2026-05-04 21:41 | 52.82947 | -1.31795 | 317 ft | 16 kts | 89° |
| 2026-05-04 21:41 | 52.82949 | -1.31587 | 317 ft | 19 kts | 88° |
| 2026-05-04 21:42 | 52.82954 | -1.31343 | 317 ft | 23 kts | 88° |
| 2026-05-04 21:42 | 52.82959 | -1.31124 | 317 ft | 16 kts | 89° |
| 2026-05-04 21:42 | 52.82960 | -1.30941 | 317 ft | 10 kts | 88° |
| 2026-05-04 21:42 | 52.82965 | -1.30802 | 317 ft | 9 kts | 83° |
| 2026-05-04 21:43 | 52.83004 | -1.30693 | 317 ft | 13 kts | 34° |
| 2026-05-04 21:43 | 52.83079 | -1.30674 | 317 ft | 12 kts | 350° |
| 2026-05-04 21:43 | 52.83133 | -1.30754 | 317 ft | 11 kts | 272° |
| 2026-05-04 21:43 | 52.83134 | -1.30808 | 317 ft | 2 kts | 270° |
| 2026-05-04 21:44 | 52.83132 | -1.30961 | 317 ft | 36 kts | 269° |
| 2026-05-04 21:44 | 52.83119 | -1.31673 | 317 ft | 86 kts | 268° |
| 2026-05-04 21:44 | 52.83097 | -1.32927 | 317 ft | 131 kts | 269° |
| 2026-05-04 21:44 | 52.83062 | -1.34681 | 332 ft | 169 kts | 268° |
| 2026-05-04 21:45 | 52.83004 | -1.36742 | 521 ft | 190 kts | 267° |
| 2026-05-04 21:45 | 52.82633 | -1.38977 | 698 ft | 214 kts | 237° |
| 2026-05-04 21:45 | 52.81576 | -1.40870 | 965 ft | 236 kts | 223° |
| 2026-05-04 21:45 | 52.80342 | -1.42765 | 1535 ft | 244 kts | 223° |
| 2026-05-04 21:46 | 52.79057 | -1.44738 | 1955 ft | 257 kts | 223° |
| 2026-05-04 21:46 | 52.77729 | -1.46751 | 2588 ft | 261 kts | 223° |
| 2026-05-04 21:46 | 52.76216 | -1.48328 | 3210 ft | 265 kts | 198° |
| 2026-05-04 21:46 | 52.74379 | -1.48547 | 3825 ft | 269 kts | 170° |
| 2026-05-04 21:47 | 52.72595 | -1.47676 | 4461 ft | 271 kts | 160° |
| 2026-05-04 21:47 | 52.70800 | -1.46564 | 5097 ft | 274 kts | 159° |
| 2026-05-04 21:47 | 52.69046 | -1.45393 | 5811 ft | 271 kts | 158° |
| 2026-05-04 21:47 | 52.67322 | -1.44194 | 6554 ft | 268 kts | 157° |
| 2026-05-04 21:48 | 52.65589 | -1.42988 | 7121 ft | 271 kts | 159° |
| 2026-05-04 21:48 | 52.63840 | -1.41887 | 7701 ft | 272 kts | 160° |
| 2026-05-04 21:48 | 52.62066 | -1.40771 | 8272 ft | 274 kts | 160° |
| 2026-05-04 21:48 | 52.60284 | -1.39644 | 8805 ft | 278 kts | 160° |
| 2026-05-04 21:49 | 52.58436 | -1.38477 | 9013 ft | 286 kts | 160° |
| 2026-05-04 21:49 | 52.56610 | -1.37321 | 8985 ft | 278 kts | 160° |
| 2026-05-04 21:49 | 52.54813 | -1.36185 | 8999 ft | 277 kts | 160° |
| 2026-05-04 21:49 | 52.53002 | -1.34994 | 9098 ft | 282 kts | 158° |
| 2026-05-04 21:50 | 52.51187 | -1.33755 | 9714 ft | 281 kts | 159° |
| 2026-05-04 21:50 | 52.49403 | -1.32542 | 10268 ft | 284 kts | 159° |
| 2026-05-04 21:50 | 52.47524 | -1.31267 | 10464 ft | 300 kts | 159° |
| 2026-05-04 21:50 | 52.45548 | -1.29927 | 10676 ft | 316 kts | 159° |
| 2026-05-04 21:51 | 52.43472 | -1.28519 | 10887 ft | 332 kts | 159° |
| 2026-05-04 21:51 | 52.41278 | -1.27033 | 11103 ft | 348 kts | 158° |
| 2026-05-04 21:51 | 52.39004 | -1.25495 | 11315 ft | 365 kts | 158° |
| 2026-05-04 21:51 | 52.36607 | -1.23874 | 11587 ft | 379 kts | 158° |
| 2026-05-04 21:52 | 52.34160 | -1.22222 | 12247 ft | 382 kts | 158° |
| 2026-05-04 21:52 | 52.31669 | -1.20542 | 12882 ft | 386 kts | 158° |
| 2026-05-04 21:52 | 52.29178 | -1.18865 | 13524 ft | 389 kts | 159° |
| 2026-05-04 21:52 | 52.26667 | -1.17176 | 14132 ft | 392 kts | 159° |
| 2026-05-04 21:53 | 52.24150 | -1.15485 | 14727 ft | 396 kts | 158° |
| 2026-05-04 21:53 | 52.21605 | -1.13752 | 15313 ft | 399 kts | 156° |
| 2026-05-04 21:53 | 52.19173 | -1.11475 | 15883 ft | 403 kts | 145° |
| 2026-05-04 21:53 | 52.17060 | -1.08506 | 16432 ft | 408 kts | 135° |
| 2026-05-04 21:54 | 52.15274 | -1.04883 | 16977 ft | 412 kts | 126° |
| 2026-05-04 21:54 | 52.13649 | -1.00990 | 17517 ft | 415 kts | 126° |
| 2026-05-04 21:54 | 52.12027 | -0.97134 | 18040 ft | 419 kts | 125° |
| 2026-05-04 21:54 | 52.10370 | -0.93198 | 18579 ft | 421 kts | 126° |
| 2026-05-04 21:55 | 52.08699 | -0.89238 | 19114 ft | 424 kts | 126° |
| 2026-05-04 21:55 | 52.07034 | -0.85302 | 19632 ft | 427 kts | 126° |
| 2026-05-04 21:55 | 52.05339 | -0.81300 | 20147 ft | 430 kts | 126° |
| 2026-05-04 21:55 | 52.03659 | -0.77339 | 20649 ft | 432 kts | 126° |
| 2026-05-04 21:56 | 52.01955 | -0.73329 | 21143 ft | 435 kts | 126° |
| 2026-05-04 21:56 | 52.00232 | -0.69283 | 21630 ft | 438 kts | 126° |
| 2026-05-04 21:56 | 51.98509 | -0.65234 | 22251 ft | 437 kts | 127° |
| 2026-05-04 21:56 | 51.96783 | -0.61193 | 22757 ft | 439 kts | 127° |
| 2026-05-04 21:57 | 51.95038 | -0.57113 | 23206 ft | 442 kts | 127° |
| 2026-05-04 21:57 | 51.93272 | -0.52990 | 23704 ft | 443 kts | 127° |
| 2026-05-04 21:57 | 51.91506 | -0.48876 | 24155 ft | 446 kts | 127° |
| 2026-05-04 21:57 | 51.89771 | -0.44843 | 24661 ft | 450 kts | 127° |
| 2026-05-04 21:58 | 51.88173 | -0.41131 | 25152 ft | 453 kts | 127° |
| 2026-05-04 21:58 | 51.86367 | -0.36943 | 25653 ft | 457 kts | 127° |
| 2026-05-04 21:58 | 51.84686 | -0.33050 | 26125 ft | 460 kts | 127° |
| 2026-05-04 21:58 | 51.82823 | -0.28740 | 26627 ft | 463 kts | 127° |
| 2026-05-04 21:59 | 51.80971 | -0.24465 | 27109 ft | 467 kts | 127° |
| 2026-05-04 21:59 | 51.79120 | -0.20133 | 27601 ft | 471 kts | 125° |
| 2026-05-04 21:59 | 51.77585 | -0.15474 | 28047 ft | 477 kts | 115° |
| 2026-05-04 21:59 | 51.76505 | -0.10366 | 28503 ft | 483 kts | 106° |
| 2026-05-04 22:00 | 51.75941 | -0.05031 | 29082 ft | 486 kts | 97° |
| 2026-05-04 22:00 | 51.75904 | 0.00418 | 29720 ft | 487 kts | 88° |
| 2026-05-04 22:00 | 51.76311 | 0.05932 | 30053 ft | 494 kts | 84° |
| 2026-05-04 22:00 | 51.76785 | 0.11446 | 30205 ft | 503 kts | 84° |
| 2026-05-04 22:01 | 51.77261 | 0.17079 | 30901 ft | 499 kts | 84° |
| 2026-05-04 22:01 | 51.77719 | 0.22592 | 31567 ft | 495 kts | 84° |
| 2026-05-04 22:01 | 51.78166 | 0.28046 | 32133 ft | 493 kts | 84° |
| 2026-05-04 22:01 | 51.78612 | 0.33540 | 32679 ft | 491 kts | 84° |
| 2026-05-04 22:02 | 51.79056 | 0.39065 | 33224 ft | 489 kts | 84° |
| 2026-05-04 22:02 | 51.79487 | 0.44459 | 33723 ft | 487 kts | 84° |
| 2026-05-04 22:02 | 51.79919 | 0.49918 | 34172 ft | 486 kts | 84° |
| 2026-05-04 22:02 | 51.80348 | 0.55367 | 34633 ft | 484 kts | 84° |
| 2026-05-04 22:03 | 51.80767 | 0.60737 | 34994 ft | 483 kts | 84° |
| 2026-05-04 22:03 | 51.82001 | 0.70766 | 35054 ft | 483 kts | 78° |
| 2026-05-04 22:04 | 51.83620 | 0.81356 | 35048 ft | 483 kts | 77° |
| 2026-05-04 22:04 | 51.85508 | 0.91794 | 35050 ft | 485 kts | 75° |
| 2026-05-04 22:05 | 51.87408 | 1.02231 | 35049 ft | 485 kts | 75° |
| 2026-05-04 22:05 | 51.89317 | 1.12792 | 35049 ft | 485 kts | 75° |
| 2026-05-04 22:06 | 51.91206 | 1.23307 | 35049 ft | 486 kts | 75° |
| 2026-05-04 22:06 | 51.93098 | 1.33909 | 35050 ft | 487 kts | 75° |
| 2026-05-04 22:07 | 51.94970 | 1.44451 | 35050 ft | 488 kts | 75° |
| 2026-05-04 22:07 | 51.96842 | 1.55059 | 35050 ft | 489 kts | 75° |
| 2026-05-04 22:08 | 51.98643 | 1.65321 | 35050 ft | 488 kts | 76° |
| 2026-05-04 22:08 | 52.00343 | 1.75833 | 35050 ft | 488 kts | 78° |
| 2026-05-04 22:09 | 52.01992 | 1.86450 | 35049 ft | 488 kts | 78° |
| 2026-05-04 22:09 | 52.03637 | 1.97105 | 35049 ft | 489 kts | 78° |
| 2026-05-04 22:10 | 52.05288 | 2.07865 | 35050 ft | 488 kts | 78° |
| 2026-05-04 22:10 | 52.06919 | 2.18565 | 35050 ft | 488 kts | 78° |
| 2026-05-04 22:11 | 52.08533 | 2.29228 | 35050 ft | 488 kts | 77° |
| 2026-05-04 22:11 | 52.10111 | 2.39718 | 35050 ft | 487 kts | 77° |
| 2026-05-04 22:12 | 52.11753 | 2.50440 | 35045 ft | 488 kts | 75° |
| 2026-05-04 22:12 | 52.13782 | 2.60974 | 35046 ft | 488 kts | 73° |
| 2026-05-04 22:13 | 52.15717 | 2.71117 | 35044 ft | 488 kts | 75° |
| 2026-05-04 22:13 | 52.17729 | 2.81762 | 35044 ft | 487 kts | 74° |
| 2026-05-04 22:14 | 52.19706 | 2.92286 | 35046 ft | 488 kts | 75° |
| 2026-05-04 22:14 | 52.21688 | 3.02897 | 35036 ft | 488 kts | 75° |
| 2026-05-04 22:15 | 52.23652 | 3.13477 | 35032 ft | 488 kts | 75° |
| 2026-05-04 22:15 | 52.25604 | 3.24052 | 35033 ft | 489 kts | 75° |
| 2026-05-04 22:16 | 52.27562 | 3.34709 | 35037 ft | 490 kts | 75° |
| 2026-05-04 22:16 | 52.29514 | 3.45398 | 35041 ft | 491 kts | 75° |
| 2026-05-04 22:17 | 52.31453 | 3.56071 | 35044 ft | 492 kts | 75° |
| 2026-05-04 22:17 | 52.33392 | 3.66815 | 35047 ft | 492 kts | 76° |
| 2026-05-04 22:18 | 52.35329 | 3.77612 | 35045 ft | 491 kts | 76° |
| 2026-05-04 22:18 | 52.37242 | 3.88335 | 35045 ft | 493 kts | 76° |
| 2026-05-04 22:19 | 52.39154 | 3.99121 | 35032 ft | 493 kts | 76° |
| 2026-05-04 22:19 | 52.41052 | 4.09894 | 35022 ft | 494 kts | 76° |
| 2026-05-04 22:20 | 52.42934 | 4.20642 | 35020 ft | 494 kts | 76° |
| 2026-05-04 22:20 | 52.44824 | 4.31503 | 35020 ft | 494 kts | 76° |
| 2026-05-04 22:21 | 52.46697 | 4.42330 | 35020 ft | 494 kts | 76° |
| 2026-05-04 22:21 | 52.48562 | 4.53177 | 35022 ft | 494 kts | 76° |
| 2026-05-04 22:22 | 52.50404 | 4.63953 | 35023 ft | 495 kts | 75° |
| 2026-05-04 22:22 | 52.52231 | 4.74707 | 35020 ft | 495 kts | 76° |
| 2026-05-04 22:23 | 52.54349 | 4.84614 | 35024 ft | 498 kts | 64° |
| 2026-05-04 22:23 | 52.58241 | 4.94022 | 35030 ft | 500 kts | 52° |
| 2026-05-04 22:24 | 52.62512 | 5.03005 | 35021 ft | 500 kts | 52° |
| 2026-05-04 22:24 | 52.66801 | 5.12010 | 35022 ft | 500 kts | 52° |
| 2026-05-04 22:25 | 52.71072 | 5.20991 | 35031 ft | 500 kts | 52° |
| 2026-05-04 22:25 | 52.74608 | 5.30757 | 35043 ft | 498 kts | 69° |
| 2026-05-04 22:26 | 52.77030 | 5.41491 | 35044 ft | 500 kts | 71° |
| 2026-05-04 22:26 | 52.79382 | 5.52297 | 35046 ft | 499 kts | 71° |
| 2026-05-04 22:27 | 52.81704 | 5.63109 | 35051 ft | 500 kts | 71° |
| 2026-05-04 22:27 | 52.84030 | 5.74021 | 35047 ft | 499 kts | 72° |
| 2026-05-04 22:28 | 52.86346 | 5.84959 | 35042 ft | 500 kts | 72° |
| 2026-05-04 22:28 | 52.88509 | 5.95230 | 35030 ft | 500 kts | 72° |
| 2026-05-04 22:29 | 52.90791 | 6.06123 | 35021 ft | 503 kts | 72° |
| 2026-05-04 22:29 | 52.93095 | 6.17184 | 35021 ft | 505 kts | 72° |
| 2026-05-04 22:30 | 52.95379 | 6.28208 | 35023 ft | 505 kts | 72° |
| 2026-05-04 22:30 | 52.97664 | 6.39302 | 35023 ft | 504 kts | 72° |
| 2026-05-04 22:31 | 52.99923 | 6.50329 | 35027 ft | 506 kts | 72° |
| 2026-05-04 22:31 | 53.02198 | 6.61495 | 35025 ft | 505 kts | 72° |
| 2026-05-04 22:32 | 53.04331 | 6.72017 | 35021 ft | 506 kts | 73° |
| 2026-05-04 22:32 | 53.06576 | 6.83159 | 35022 ft | 507 kts | 73° |
| 2026-05-04 22:33 | 53.08740 | 6.93957 | 35024 ft | 508 kts | 73° |
| 2026-05-04 22:33 | 53.10712 | 7.03853 | 35017 ft | 508 kts | 73° |
| 2026-05-04 22:34 | 53.12941 | 7.15097 | 35018 ft | 509 kts | 73° |
| 2026-05-04 22:34 | 53.15159 | 7.26359 | 35019 ft | 510 kts | 73° |
| 2026-05-04 22:35 | 53.17373 | 7.37670 | 35020 ft | 510 kts | 73° |
| 2026-05-04 22:35 | 53.19566 | 7.48937 | 35020 ft | 510 kts | 72° |
| 2026-05-04 22:36 | 53.21744 | 7.60203 | 35023 ft | 511 kts | 72° |
| 2026-05-04 22:36 | 53.23873 | 7.71257 | 35015 ft | 511 kts | 73° |
| 2026-05-04 22:37 | 53.26081 | 7.82797 | 35017 ft | 511 kts | 73° |
| 2026-05-04 22:37 | 53.28227 | 7.94073 | 35017 ft | 512 kts | 73° |
| 2026-05-04 22:38 | 53.30285 | 8.04961 | 35007 ft | 514 kts | 73° |
| 2026-05-04 22:38 | 53.32436 | 8.16388 | 35001 ft | 516 kts | 72° |
| 2026-05-04 22:39 | 53.34991 | 8.27661 | 35004 ft | 515 kts | 69° |
| 2026-05-04 22:39 | 53.37591 | 8.38906 | 35011 ft | 517 kts | 69° |
| 2026-05-04 22:40 | 53.40160 | 8.50104 | 35014 ft | 516 kts | 68° |
| 2026-05-04 22:40 | 53.43111 | 8.61132 | 35020 ft | 516 kts | 65° |
| 2026-05-04 22:41 | 53.46094 | 8.72139 | 35015 ft | 517 kts | 66° |
| 2026-05-04 22:41 | 53.49077 | 8.83230 | 35018 ft | 518 kts | 65° |
| 2026-05-04 22:42 | 53.52145 | 8.94156 | 35013 ft | 518 kts | 59° |
| 2026-05-04 22:42 | 53.56627 | 9.03617 | 35011 ft | 514 kts | 40° |
| 2026-05-04 22:43 | 53.62270 | 9.10967 | 34998 ft | 511 kts | 33° |
| 2026-05-04 22:43 | 53.68026 | 9.17982 | 34993 ft | 510 kts | 32° |
| 2026-05-04 22:44 | 53.73831 | 9.25003 | 34995 ft | 510 kts | 32° |
| 2026-05-04 22:44 | 53.79628 | 9.32003 | 34995 ft | 510 kts | 30° |
| 2026-05-04 22:45 | 53.85805 | 9.37645 | 35000 ft | 505 kts | 21° |
| 2026-05-04 22:45 | 53.95309 | 9.45467 | 34998 ft | 504 kts | 21° |
| 2026-05-04 22:46 | 54.01791 | 9.49895 | 35006 ft | 494 kts | 8° |
| 2026-05-04 22:46 | 54.08481 | 9.52222 | 34998 ft | 490 kts | 5° |
| 2026-05-04 22:47 | 54.15212 | 9.54433 | 34996 ft | 490 kts | 5° |
| 2026-05-04 22:47 | 54.21970 | 9.56636 | 34996 ft | 490 kts | 5° |
| 2026-05-04 22:48 | 54.28626 | 9.58809 | 34996 ft | 490 kts | 5° |
| 2026-05-04 22:48 | 54.35321 | 9.61000 | 34997 ft | 490 kts | 5° |
| 2026-05-04 22:49 | 54.42066 | 9.63202 | 34996 ft | 489 kts | 5° |
| 2026-05-04 22:49 | 54.48782 | 9.65396 | 34993 ft | 488 kts | 6° |
| 2026-05-04 22:50 | 54.55493 | 9.67563 | 34991 ft | 488 kts | 5° |
| 2026-05-04 22:50 | 54.62206 | 9.69689 | 34991 ft | 488 kts | 5° |
| 2026-05-04 22:51 | 54.68893 | 9.71584 | 34993 ft | 486 kts | 3° |
| 2026-05-04 22:51 | 54.75565 | 9.73865 | 34990 ft | 492 kts | 14° |
| 2026-05-04 22:52 | 54.81686 | 9.79278 | 34955 ft | 496 kts | 32° |
| 2026-05-04 22:52 | 54.84354 | 9.83090 | 34425 ft | 503 kts | 41° |
| 2026-05-04 22:52 | 54.86709 | 9.87611 | 33776 ft | 506 kts | 50° |
| 2026-05-04 22:53 | 54.88676 | 9.92732 | 33030 ft | 510 kts | 59° |
| 2026-05-04 22:53 | 54.90475 | 9.98063 | 32293 ft | 511 kts | 54° |
| 2026-05-04 22:53 | 54.92643 | 10.02868 | 31614 ft | 509 kts | 45° |
| 2026-05-04 22:53 | 54.95140 | 10.07320 | 30989 ft | 511 kts | 42° |
| 2026-05-04 22:54 | 54.97627 | 10.11685 | 30353 ft | 512 kts | 43° |
| 2026-05-04 22:54 | 55.00153 | 10.16121 | 29717 ft | 513 kts | 43° |
| 2026-05-04 22:54 | 55.02702 | 10.20604 | 29084 ft | 513 kts | 43° |
| 2026-05-04 22:54 | 55.05181 | 10.24972 | 28472 ft | 508 kts | 43° |
| 2026-05-04 22:55 | 55.07686 | 10.29390 | 27878 ft | 503 kts | 42° |
| 2026-05-04 22:55 | 55.10072 | 10.33606 | 27311 ft | 498 kts | 42° |
| 2026-05-04 22:55 | 55.12486 | 10.37880 | 26730 ft | 493 kts | 42° |
| 2026-05-04 22:55 | 55.14904 | 10.42165 | 26150 ft | 488 kts | 42° |
| 2026-05-04 22:56 | 55.17268 | 10.46364 | 25587 ft | 483 kts | 42° |
| 2026-05-04 22:56 | 55.19617 | 10.50545 | 25034 ft | 477 kts | 42° |
| 2026-05-04 22:56 | 55.21944 | 10.54692 | 24500 ft | 471 kts | 41° |
| 2026-05-04 22:56 | 55.24236 | 10.58812 | 23994 ft | 466 kts | 43° |
| 2026-05-04 22:57 | 55.26241 | 10.63250 | 23503 ft | 463 kts | 53° |
| 2026-05-04 22:57 | 55.27798 | 10.68153 | 22975 ft | 461 kts | 64° |
| 2026-05-04 22:57 | 55.28940 | 10.73451 | 22357 ft | 460 kts | 71° |
| 2026-05-04 22:57 | 55.29863 | 10.78469 | 21814 ft | 457 kts | 71° |
| 2026-05-04 22:58 | 55.30827 | 10.83887 | 21257 ft | 453 kts | 72° |
| 2026-05-04 22:58 | 55.31711 | 10.88969 | 20750 ft | 450 kts | 72° |
| 2026-05-04 22:58 | 55.32615 | 10.94232 | 20234 ft | 448 kts | 72° |
| 2026-05-04 22:58 | 55.33502 | 10.99481 | 19733 ft | 446 kts | 72° |
| 2026-05-04 22:59 | 55.34375 | 11.04708 | 19251 ft | 442 kts | 72° |
| 2026-05-04 22:59 | 55.35243 | 11.09923 | 18782 ft | 441 kts | 72° |
| 2026-05-04 22:59 | 55.36093 | 11.15055 | 18310 ft | 439 kts | 72° |
| 2026-05-04 22:59 | 55.36945 | 11.20205 | 17833 ft | 436 kts | 72° |
| 2026-05-04 23:00 | 55.37797 | 11.25384 | 17370 ft | 433 kts | 72° |
| 2026-05-04 23:00 | 55.38623 | 11.30416 | 16900 ft | 430 kts | 72° |
| 2026-05-04 23:00 | 55.39463 | 11.35549 | 16432 ft | 425 kts | 72° |
| 2026-05-04 23:00 | 55.40274 | 11.40517 | 16059 ft | 420 kts | 72° |
| 2026-05-04 23:01 | 55.41069 | 11.45405 | 15898 ft | 406 kts | 72° |
| 2026-05-04 23:01 | 55.41825 | 11.50064 | 15897 ft | 389 kts | 72° |
| 2026-05-04 23:01 | 55.42562 | 11.54622 | 15894 ft | 373 kts | 72° |
| 2026-05-04 23:01 | 55.43274 | 11.58958 | 15889 ft | 357 kts | 69° |
| 2026-05-04 23:02 | 55.44329 | 11.62781 | 15874 ft | 344 kts | 51° |
| 2026-05-04 23:02 | 55.45924 | 11.65984 | 15624 ft | 347 kts | 39° |
| 2026-05-04 23:02 | 55.47702 | 11.68890 | 15184 ft | 346 kts | 38° |
| 2026-05-04 23:02 | 55.49457 | 11.71702 | 14745 ft | 346 kts | 38° |
| 2026-05-04 23:03 | 55.51279 | 11.74589 | 14280 ft | 347 kts | 38° |
| 2026-05-04 23:03 | 55.53075 | 11.77422 | 13971 ft | 341 kts | 37° |
| 2026-05-04 23:03 | 55.54854 | 11.80225 | 13662 ft | 338 kts | 37° |
| 2026-05-04 23:03 | 55.56627 | 11.83009 | 13099 ft | 342 kts | 37° |
| 2026-05-04 23:04 | 55.58385 | 11.85781 | 12983 ft | 330 kts | 38° |
| 2026-05-04 23:04 | 55.60109 | 11.88497 | 12451 ft | 336 kts | 37° |
| 2026-05-04 23:04 | 55.61847 | 11.91239 | 12184 ft | 329 kts | 38° |
| 2026-05-04 23:04 | 55.63519 | 11.93889 | 12086 ft | 312 kts | 37° |
| 2026-05-04 23:05 | 55.65135 | 11.96445 | 11341 ft | 307 kts | 37° |
| 2026-05-04 23:05 | 55.66708 | 11.98932 | 11057 ft | 303 kts | 37° |
| 2026-05-04 23:05 | 55.68299 | 12.01445 | 10770 ft | 309 kts | 37° |
| 2026-05-04 23:05 | 55.69913 | 12.04007 | 10339 ft | 306 kts | 38° |
| 2026-05-04 23:06 | 55.71463 | 12.06477 | 10148 ft | 289 kts | 38° |
| 2026-05-04 23:06 | 55.72728 | 12.09243 | 10109 ft | 295 kts | 62° |
| 2026-05-04 23:06 | 55.73270 | 12.12851 | 9909 ft | 308 kts | 86° |
| 2026-05-04 23:06 | 55.73160 | 12.16561 | 9579 ft | 296 kts | 96° |
| 2026-05-04 23:07 | 55.72951 | 12.20231 | 9107 ft | 298 kts | 95° |
| 2026-05-04 23:07 | 55.72740 | 12.23871 | 8733 ft | 290 kts | 95° |
| 2026-05-04 23:07 | 55.72526 | 12.27443 | 8469 ft | 291 kts | 95° |
| 2026-05-04 23:07 | 55.72306 | 12.31033 | 8197 ft | 293 kts | 95° |
| 2026-05-04 23:08 | 55.72085 | 12.34601 | 8077 ft | 281 kts | 95° |
| 2026-05-04 23:08 | 55.71875 | 12.37971 | 7680 ft | 273 kts | 95° |
| 2026-05-04 23:08 | 55.71661 | 12.41373 | 7281 ft | 277 kts | 95° |
| 2026-05-04 23:08 | 55.71446 | 12.44777 | 6916 ft | 280 kts | 95° |
| 2026-05-04 23:09 | 55.71230 | 12.48214 | 6581 ft | 281 kts | 94° |
| 2026-05-04 23:09 | 55.71394 | 12.51633 | 6253 ft | 277 kts | 69° |
| 2026-05-04 23:09 | 55.72174 | 12.54776 | 5968 ft | 274 kts | 60° |
| 2026-05-04 23:09 | 55.73007 | 12.57780 | 5655 ft | 275 kts | 60° |
| 2026-05-04 23:10 | 55.73861 | 12.60832 | 5337 ft | 273 kts | 60° |
| 2026-05-04 23:10 | 55.74737 | 12.63696 | 5006 ft | 253 kts | 48° |
| 2026-05-04 23:10 | 55.75865 | 12.65757 | 4795 ft | 230 kts | 37° |
| 2026-05-04 23:10 | 55.77039 | 12.67634 | 4694 ft | 221 kts | 37° |
| 2026-05-04 23:11 | 55.78199 | 12.69478 | 4674 ft | 222 kts | 37° |
| 2026-05-04 23:11 | 55.79369 | 12.71321 | 4520 ft | 220 kts | 37° |
| 2026-05-04 23:11 | 55.80504 | 12.73104 | 4385 ft | 217 kts | 37° |
| 2026-05-04 23:11 | 55.81650 | 12.74900 | 4265 ft | 217 kts | 37° |
| 2026-05-04 23:12 | 55.82700 | 12.76845 | 4130 ft | 222 kts | 56° |
| 2026-05-04 23:12 | 55.83100 | 12.79496 | 3984 ft | 229 kts | 91° |
| 2026-05-04 23:12 | 55.82615 | 12.82165 | 3825 ft | 228 kts | 127° |
| 2026-05-04 23:12 | 55.81569 | 12.84307 | 3675 ft | 228 kts | 135° |
| 2026-05-04 23:13 | 55.80502 | 12.86389 | 3498 ft | 226 kts | 134° |
| 2026-05-04 23:13 | 55.79336 | 12.88275 | 3330 ft | 221 kts | 156° |
| 2026-05-04 23:13 | 55.77896 | 12.88834 | 3112 ft | 216 kts | 190° |
| 2026-05-04 23:13 | 55.76530 | 12.87907 | 2798 ft | 207 kts | 219° |
| 2026-05-04 23:14 | 55.75401 | 12.86393 | 2544 ft | 205 kts | 222° |
| 2026-05-04 23:14 | 55.74282 | 12.84806 | 2338 ft | 202 kts | 223° |
| 2026-05-04 23:14 | 55.73215 | 12.83233 | 2168 ft | 201 kts | 224° |
| 2026-05-04 23:14 | 55.72134 | 12.81615 | 2013 ft | 200 kts | 224° |
| 2026-05-04 23:15 | 55.71083 | 12.80049 | 2002 ft | 199 kts | 224° |
| 2026-05-04 23:15 | 55.70176 | 12.78650 | 2002 ft | 201 kts | 225° |
| 2026-05-04 23:15 | 55.69138 | 12.77015 | 1742 ft | 200 kts | 225° |
| 2026-05-04 23:15 | 55.68123 | 12.75436 | 1534 ft | 188 kts | 224° |
| 2026-05-04 23:16 | 55.67161 | 12.73939 | 1286 ft | 177 kts | 223° |
| 2026-05-04 23:16 | 55.66271 | 12.72549 | 1032 ft | 166 kts | 223° |
| 2026-05-04 23:16 | 55.65430 | 12.71248 | 785 ft | 155 kts | 223° |
| 2026-05-04 23:16 | 55.64638 | 12.70016 | 574 ft | 148 kts | 224° |
| 2026-05-04 23:17 | 55.63856 | 12.68795 | 392 ft | 149 kts | 224° |
| 2026-05-04 23:17 | 55.63086 | 12.67602 | 200 ft | 148 kts | 223° |
| 2026-05-04 23:17 | 55.62296 | 12.66387 | 19 ft | 148 kts | 223° |
| 2026-05-04 23:17 | 55.61621 | 12.65325 | 24 ft | 108 kts | 222° |
| 2026-05-04 23:18 | 55.61146 | 12.64596 | 27 ft | 73 kts | 220° |
| 2026-05-04 23:18 | 55.60905 | 12.64222 | 26 ft | 37 kts | 221° |
| 2026-05-04 23:18 | 55.60734 | 12.63923 | 25 ft | 31 kts | 238° |
| 2026-05-04 23:18 | 55.60756 | 12.63644 | 25 ft | 6 kts | 323° |
| 2026-05-04 23:19 | 55.60784 | 12.63620 | 25 ft | 0 kts | 345° |
| 2026-05-04 23:20 | 55.60791 | 12.63617 | 25 ft | 3 kts | 347° |
| 2026-05-04 23:20 | 55.60841 | 12.63616 | 25 ft | 10 kts | 18° |
| 2026-05-04 23:20 | 55.60932 | 12.63715 | 25 ft | 19 kts | 32° |
| 2026-05-04 23:21 | 55.61065 | 12.63862 | 25 ft | 24 kts | 31° |
| 2026-05-04 23:21 | 55.61218 | 12.64039 | 25 ft | 28 kts | 36° |
| 2026-05-04 23:21 | 55.61391 | 12.64244 | 25 ft | 30 kts | 33° |
| 2026-05-04 23:21 | 55.61568 | 12.64442 | 25 ft | 29 kts | 33° |
| 2026-05-04 23:22 | 55.61732 | 12.64627 | 24 ft | 27 kts | 32° |
| 2026-05-04 23:22 | 55.61883 | 12.64812 | 24 ft | 25 kts | 33° |
| 2026-05-04 23:22 | 55.62014 | 12.64958 | 23 ft | 20 kts | 33° |
| 2026-05-04 23:22 | 55.62131 | 12.65093 | 23 ft | 19 kts | 33° |
| 2026-05-04 23:23 | 55.62201 | 12.65258 | 22 ft | 16 kts | 103° |
| 2026-05-04 23:23 | 55.62127 | 12.65346 | 22 ft | 13 kts | 214° |
| 2026-05-04 23:23 | 55.62130 | 12.65226 | 22 ft | 9 kts | 299° |
| 2026-05-04 23:23 | 55.62167 | 12.65157 | 23 ft | 6 kts | 356° |
| 2026-05-04 23:24 | 55.62219 | 12.65182 | 22 ft | 11 kts | 20° |
| 2026-05-04 23:24 | 55.62318 | 12.65200 | 22 ft | 19 kts | 359° |
| 2026-05-04 23:24 | 55.62435 | 12.65267 | 22 ft | 18 kts | 78° |
| 2026-05-04 23:24 | 55.62440 | 12.65519 | 21 ft | 23 kts | 88° |
| 2026-05-04 23:25 | 55.62444 | 12.65833 | 19 ft | 27 kts | 89° |
| 2026-05-04 23:25 | 55.62448 | 12.66041 | 19 ft | 14 kts | 78° |
| 2026-05-04 23:25 | 55.62511 | 12.66116 | 18 ft | 12 kts | 29° |
| 2026-05-04 23:25 | 55.62587 | 12.66137 | 18 ft | 5 kts | 320° |
| 2026-05-04 23:26 | 55.62593 | 12.66066 | 18 ft | 7 kts | 272° |
| 2026-05-04 23:26 | 55.62594 | 12.66024 | 19 ft | 0 kts | 271° |